createdAt,value
2023-02-01T00:02:00.975Z,8.60
2023-02-01T00:04:41.612Z,9.50
2023-02-01T00:07:14.343Z,9.80
2023-02-01T00:09:41.500Z,9.70
2023-02-01T00:12:08.139Z,9.40
2023-02-01T00:14:38.798Z,8.80
2023-02-01T00:17:06.996Z,9.30
2023-02-01T00:19:34.806Z,9.20
2023-02-01T00:22:01.348Z,8.40
2023-02-01T00:24:28.956Z,8.70
2023-02-01T00:26:56.160Z,9.20
2023-02-01T00:29:24.308Z,9.10
2023-02-01T00:31:51.997Z,9.30
2023-02-01T00:34:22.920Z,8.80
2023-02-01T00:36:50.741Z,10.50
2023-02-01T00:39:17.547Z,9.80
2023-02-01T00:41:45.090Z,10.40
2023-02-01T00:44:11.671Z,9.80
2023-02-01T00:46:38.594Z,10.80
2023-02-01T00:49:07.635Z,10.10
2023-02-01T00:51:34.775Z,10.50
2023-02-01T00:54:01.418Z,11.20
2023-02-01T00:56:27.946Z,11.30
2023-02-01T00:58:54.914Z,10.20
2023-02-01T01:01:23.387Z,11.10
2023-02-01T01:03:52.278Z,9.60
2023-02-01T01:06:23.870Z,10.10
2023-02-01T01:08:54.770Z,9.80
2023-02-01T01:11:26.614Z,9.70
2023-02-01T01:13:56.061Z,9.90
2023-02-01T01:16:23.686Z,10.70
2023-02-01T01:18:50.405Z,10.10
2023-02-01T01:21:17.031Z,9.90
2023-02-01T01:23:44.425Z,10.30
2023-02-01T01:26:22.853Z,10.20
2023-02-01T01:28:49.846Z,9.60
2023-02-01T01:31:17.319Z,9.90
2023-02-01T01:33:48.371Z,9.70
2023-02-01T01:36:14.920Z,9.30
2023-02-01T01:38:41.785Z,10.60
2023-02-01T01:41:11.848Z,11.10
2023-02-01T01:43:50.732Z,11.10
2023-02-01T01:46:23.836Z,10.90
2023-02-01T01:48:54.454Z,11.60
2023-02-01T01:51:21.702Z,10.30
2023-02-01T01:53:53.974Z,11.60
2023-02-01T01:56:22.001Z,11.90
2023-02-01T01:58:48.841Z,12.50
2023-02-01T02:01:15.627Z,14.20
2023-02-01T02:03:45.314Z,14.60
2023-02-01T02:06:21.436Z,18.10
2023-02-01T02:08:47.926Z,17.00
2023-02-01T02:11:16.662Z,18.10
2023-02-01T02:13:45.151Z,19.70
2023-02-01T02:16:26.453Z,24.20
2023-02-01T02:19:12.399Z,19.70
2023-02-01T02:21:53.815Z,20.60
2023-02-01T02:24:55.940Z,18.90
2023-02-01T02:27:24.739Z,17.20
2023-02-01T02:30:08.201Z,18.30
2023-02-01T02:32:52.740Z,16.40
2023-02-01T02:35:26.956Z,13.70
2023-02-01T02:37:55.141Z,14.20
2023-02-01T02:40:25.455Z,13.30
2023-02-01T02:43:30.559Z,11.80
2023-02-01T02:46:37.874Z,13.30
2023-02-01T02:49:15.930Z,13.60
2023-02-01T02:52:38.875Z,10.10
2023-02-01T02:55:06.231Z,10.70
2023-02-01T02:57:59.371Z,11.50
2023-02-01T03:00:50.314Z,14.90
2023-02-01T03:03:36.584Z,10.10
2023-02-01T03:06:03.429Z,11.30
2023-02-01T03:08:31.382Z,11.50
2023-02-01T03:11:04.769Z,9.70
2023-02-01T03:13:51.701Z,12.90
2023-02-01T03:16:40.401Z,11.40
2023-02-01T03:19:08.912Z,12.10
2023-02-01T03:21:37.341Z,12.70
2023-02-01T03:24:33.384Z,12.70
2023-02-01T03:27:05.795Z,13.50
2023-02-01T03:29:39.111Z,13.10
2023-02-01T03:32:05.843Z,13.30
2023-02-01T03:34:33.923Z,14.00
2023-02-01T03:37:06.526Z,15.30
2023-02-01T03:40:11.936Z,13.50
2023-02-01T03:42:42.170Z,15.30
2023-02-01T03:45:14.507Z,15.90
2023-02-01T03:47:44.209Z,18.70
2023-02-01T03:50:12.929Z,19.50
2023-02-01T03:52:47.684Z,18.00
2023-02-01T03:55:16.885Z,18.80
2023-02-01T03:58:09.262Z,19.70
2023-02-01T04:00:35.906Z,19.00
2023-02-01T04:03:06.737Z,17.60
2023-02-01T04:05:34.140Z,20.10
2023-02-01T04:08:05.421Z,17.60
2023-02-01T04:10:32.142Z,16.60
2023-02-01T04:12:58.904Z,18.30
2023-02-01T04:15:25.875Z,17.50
2023-02-01T04:17:52.949Z,18.60
2023-02-01T04:20:19.701Z,18.70
2023-02-01T04:22:46.352Z,16.90
2023-02-01T04:25:13.075Z,19.80
2023-02-01T04:30:09.995Z,19.30
2023-02-01T04:32:37.579Z,17.10
2023-02-01T04:35:04.812Z,16.00
2023-02-01T04:37:31.996Z,20.20
2023-02-01T04:39:58.839Z,19.20
2023-02-01T04:42:26.773Z,19.20
2023-02-01T04:44:53.623Z,19.40
2023-02-01T04:47:21.820Z,18.30
2023-02-01T04:49:48.461Z,20.50
2023-02-01T04:52:15.129Z,20.00
2023-02-01T04:54:41.768Z,20.50
2023-02-01T04:57:08.386Z,21.00
2023-02-01T04:59:35.535Z,20.40
2023-02-01T05:02:02.113Z,20.20
2023-02-01T05:04:29.961Z,18.80
2023-02-01T05:06:56.767Z,15.70
2023-02-01T05:09:23.393Z,20.60
2023-02-01T05:12:08.937Z,19.30
2023-02-01T05:14:35.886Z,20.00
2023-02-01T05:17:02.818Z,22.10
2023-02-01T05:19:29.443Z,16.40
2023-02-01T05:21:56.167Z,20.90
2023-02-01T05:24:22.767Z,22.50
2023-02-01T05:26:50.115Z,17.40
2023-02-01T05:29:17.243Z,20.20
2023-02-01T05:31:47.649Z,20.80
2023-02-01T05:34:15.080Z,23.90
2023-02-01T05:36:41.704Z,20.60
2023-02-01T05:39:08.711Z,20.90
2023-02-01T05:41:35.403Z,20.40
2023-02-01T05:44:02.987Z,18.70
2023-02-01T05:46:30.041Z,22.20
2023-02-01T08:44:54.372Z,23.10
2023-02-01T08:47:23.869Z,18.00
2023-02-01T08:49:50.823Z,17.50
2023-02-01T08:52:18.150Z,19.30
2023-02-01T08:54:45.006Z,17.10
2023-02-01T08:57:12.485Z,16.60
2023-02-01T08:59:40.048Z,15.00
2023-02-01T09:02:11.368Z,15.20
2023-02-01T09:04:38.262Z,15.50
2023-02-01T09:07:05.579Z,15.20
2023-02-01T09:09:33.810Z,15.60
2023-02-01T09:12:01.485Z,15.60
2023-02-01T09:14:31.607Z,15.50
2023-02-01T09:17:00.006Z,16.80
2023-02-01T09:19:28.807Z,13.60
2023-02-01T09:21:55.919Z,12.60
2023-02-01T09:24:22.884Z,13.70
2023-02-01T09:26:50.052Z,12.50
2023-02-01T09:29:16.917Z,11.00
2023-02-01T09:31:49.704Z,9.60
2023-02-01T09:34:21.052Z,9.30
2023-02-01T09:36:50.427Z,8.90
2023-02-01T09:39:17.466Z,8.50
2023-02-01T09:42:05.889Z,7.80
2023-02-01T09:44:52.744Z,8.30
2023-02-01T09:47:25.009Z,7.40
2023-02-01T09:50:05.372Z,8.30
2023-02-01T09:52:41.222Z,8.20
2023-02-01T09:55:15.936Z,8.30
2023-02-01T09:58:08.653Z,8.80
2023-02-01T10:00:38.111Z,7.90
2023-02-01T10:03:06.377Z,8.80
2023-02-01T10:05:58.417Z,7.70
2023-02-01T10:08:34.282Z,6.80
2023-02-01T10:11:21.893Z,8.00
2023-02-01T10:14:13.830Z,8.60
2023-02-01T10:16:52.992Z,9.00
2023-02-01T10:19:41.875Z,8.80
2023-02-01T10:22:11.087Z,9.30
2023-02-01T10:24:41.100Z,9.90
2023-02-01T10:27:12.028Z,10.50
2023-02-01T10:29:41.733Z,9.90
2023-02-01T10:32:15.129Z,10.90
2023-02-01T10:34:43.739Z,10.60
2023-02-01T10:37:32.561Z,11.40
2023-02-01T10:40:03.399Z,9.60
2023-02-01T10:42:31.981Z,9.70
2023-02-01T10:45:00.477Z,9.10
2023-02-01T10:47:28.147Z,7.80
2023-02-01T10:50:15.984Z,7.40
2023-02-01T10:52:49.606Z,7.10
2023-02-01T10:55:30.611Z,8.00
2023-02-01T10:58:04.056Z,5.70
2023-02-01T11:00:44.630Z,7.40
2023-02-01T11:03:32.658Z,7.80
2023-02-01T11:06:00.513Z,9.20
2023-02-01T11:08:32.639Z,7.80
2023-02-01T11:11:02.750Z,9.20
2023-02-01T11:13:34.156Z,8.50
2023-02-01T11:16:04.541Z,6.90
2023-02-01T11:18:35.407Z,8.10
2023-02-01T11:21:02.497Z,7.70
2023-02-01T11:23:31.616Z,8.70
2023-02-01T11:26:00.278Z,9.60
2023-02-01T11:28:32.638Z,11.80
2023-02-01T11:31:05.839Z,10.80
2023-02-01T11:33:37.281Z,10.20
2023-02-01T11:36:09.838Z,10.90
2023-02-01T11:38:37.931Z,11.10
2023-02-01T11:41:27.187Z,9.00
2023-02-01T11:43:56.772Z,10.50
2023-02-01T11:46:30.281Z,5.50
2023-02-01T11:48:57.759Z,9.50
2023-02-01T11:51:51.063Z,6.50
2023-02-01T11:54:41.387Z,8.20
2023-02-01T11:57:15.474Z,9.30
2023-02-01T12:00:03.811Z,9.70
2023-02-01T12:02:58.298Z,11.00
2023-02-01T12:05:47.937Z,10.20
2023-02-01T12:08:46.118Z,11.10
2023-02-01T12:11:43.755Z,9.60
2023-02-01T12:14:20.768Z,9.90
2023-02-01T12:17:04.787Z,7.60
2023-02-01T12:20:09.718Z,9.80
2023-02-01T12:22:52.044Z,10.10
2023-02-01T12:25:42.737Z,10.10
2023-02-01T12:28:37.313Z,11.10
2023-02-01T12:31:13.699Z,11.00
2023-02-01T12:34:01.953Z,13.10
2023-02-01T12:37:08.574Z,11.80
2023-02-01T12:39:48.071Z,8.30
2023-02-01T12:42:36.881Z,9.80
2023-02-01T12:45:16.363Z,11.50
2023-02-01T12:47:58.548Z,10.20
2023-02-01T12:50:30.091Z,10.30
2023-02-01T12:53:07.420Z,9.80
2023-02-01T12:55:39.457Z,10.10
2023-02-01T12:58:22.207Z,12.50
2023-02-01T13:01:09.385Z,11.60
2023-02-01T13:03:50.855Z,12.70
2023-02-01T13:07:01.230Z,11.20
2023-02-01T13:09:34.946Z,11.10
2023-02-01T13:12:32.315Z,10.40
2023-02-01T13:15:11.950Z,9.60
2023-02-01T13:17:40.670Z,10.70
2023-02-01T13:20:28.773Z,9.50
2023-02-01T13:23:25.520Z,13.00
2023-02-01T13:25:54.227Z,8.10
2023-02-01T13:28:30.458Z,12.80
2023-02-01T13:31:20.083Z,11.80
2023-02-01T13:34:29.539Z,9.00
2023-02-01T13:37:13.181Z,12.30
2023-02-01T13:39:58.534Z,12.40
2023-02-01T13:43:14.910Z,12.30
2023-02-01T17:43:49.079Z,28.90
2023-02-01T17:59:19.364Z,25.40
2023-02-01T18:19:58.071Z,21.70
2023-02-01T18:22:25.127Z,20.60
2023-02-01T18:24:52.145Z,20.90
2023-02-01T18:27:19.236Z,22.60
2023-02-01T18:29:48.013Z,22.90
2023-02-01T18:32:14.846Z,21.60
2023-02-01T18:34:42.019Z,20.50
2023-02-01T18:37:09.557Z,22.00
2023-02-01T18:39:40.132Z,21.30
2023-02-01T18:42:10.038Z,21.70
2023-02-01T18:44:37.035Z,21.00
2023-02-01T18:47:04.418Z,19.70
2023-02-01T18:49:32.101Z,18.20
2023-02-01T18:51:59.713Z,20.10
2023-02-01T18:54:27.885Z,18.50
2023-02-01T18:56:55.598Z,18.10
2023-02-01T18:59:22.491Z,19.50
2023-02-01T19:01:49.329Z,17.10
2023-02-01T19:04:26.118Z,19.20
2023-02-01T19:06:54.101Z,19.00
2023-02-01T19:09:22.806Z,17.70
2023-02-01T19:11:49.651Z,17.50
2023-02-01T19:14:16.302Z,16.30
2023-02-01T19:16:43.725Z,18.70
2023-02-01T19:19:10.648Z,17.60
2023-02-01T19:21:37.607Z,15.00
2023-02-01T19:24:05.003Z,16.90
2023-02-01T19:26:32.144Z,17.70
2023-02-01T19:28:59.362Z,15.20
2023-02-01T19:31:26.380Z,16.20
2023-02-01T19:33:54.008Z,15.80
2023-02-01T19:36:20.683Z,15.40
2023-02-01T19:38:47.545Z,16.30
2023-02-01T19:41:14.200Z,15.40
2023-02-01T19:43:40.860Z,16.30
2023-02-01T19:46:07.808Z,14.50
2023-02-01T19:48:35.943Z,16.70
2023-02-01T19:51:04.068Z,15.90
2023-02-01T19:53:30.752Z,15.70
2023-02-01T19:56:01.347Z,15.50
2023-02-01T19:58:29.249Z,15.20
2023-02-01T20:00:57.474Z,14.60
2023-02-01T20:03:24.748Z,14.80
2023-02-01T20:05:52.434Z,14.30
2023-02-01T20:08:19.365Z,15.50
2023-02-01T20:10:46.198Z,14.70
2023-02-01T20:13:13.653Z,13.20
2023-02-01T20:15:43.179Z,13.90
2023-02-01T20:18:10.407Z,13.20
2023-02-01T20:20:37.371Z,13.60
2023-02-01T20:23:05.994Z,14.10
2023-02-01T20:25:36.058Z,14.10
2023-02-01T20:28:03.277Z,14.40
2023-02-01T20:30:31.708Z,13.50
2023-02-01T20:32:58.595Z,13.90
2023-02-01T20:35:25.814Z,13.90
2023-02-01T20:37:53.549Z,13.10
2023-02-01T20:40:20.385Z,13.50
2023-02-01T20:42:47.283Z,12.00
2023-02-01T20:45:14.331Z,13.50
2023-02-01T20:47:41.700Z,13.00
2023-02-01T20:50:09.351Z,12.00
2023-02-01T20:52:35.869Z,14.50
2023-02-01T20:55:02.838Z,14.00
2023-02-01T20:57:29.893Z,12.50
2023-02-01T20:59:58.715Z,13.70
2023-02-01T21:02:26.021Z,12.70
2023-02-01T21:04:53.082Z,12.70
2023-02-01T21:07:20.068Z,12.50
2023-02-01T21:09:46.790Z,11.40
2023-02-01T21:12:13.607Z,13.40
2023-02-01T21:14:40.823Z,13.20
2023-02-01T21:17:07.550Z,13.60
2023-02-01T21:19:42.683Z,12.80
2023-02-01T21:22:13.275Z,14.20
2023-02-01T21:27:24.060Z,14.10
2023-02-01T21:29:50.917Z,12.30
2023-02-01T21:32:17.741Z,13.90
2023-02-01T21:34:44.277Z,11.20
2023-02-01T21:37:11.642Z,11.40
2023-02-01T21:39:38.381Z,12.80
2023-02-01T21:42:14.120Z,11.90
2023-02-01T21:44:41.070Z,12.40
2023-02-01T21:47:09.211Z,11.40
2023-02-01T21:49:36.406Z,11.70
2023-02-01T21:52:04.235Z,12.70
2023-02-01T21:54:31.005Z,12.20
2023-02-01T21:56:57.640Z,11.90
2023-02-01T21:59:24.300Z,12.90
2023-02-01T22:01:50.897Z,10.80
2023-02-01T22:04:17.618Z,11.50
2023-02-01T22:06:47.884Z,12.10
2023-02-01T22:09:19.955Z,11.30
2023-02-01T22:11:46.866Z,12.70
2023-02-01T22:14:15.677Z,10.60
2023-02-01T22:16:42.460Z,10.90
2023-02-01T22:19:09.798Z,11.10
2023-02-01T22:21:38.281Z,10.00
2023-02-01T22:24:06.122Z,11.60
2023-02-01T22:26:33.101Z,11.10
2023-02-01T22:28:59.686Z,10.90
2023-02-01T22:31:26.337Z,11.60
2023-02-01T22:33:53.193Z,10.70
2023-02-01T22:36:19.820Z,10.70
2023-02-01T22:38:47.788Z,11.00
2023-02-01T22:41:14.435Z,10.50
2023-02-01T22:43:41.171Z,11.60
2023-02-01T22:46:14.192Z,10.50
2023-02-01T22:48:41.769Z,10.40
2023-02-01T22:51:21.957Z,10.70
2023-02-01T22:53:56.192Z,9.40
2023-02-01T22:56:27.481Z,11.30
2023-02-01T22:58:55.747Z,11.00
2023-02-01T23:01:22.530Z,10.90
2023-02-01T23:03:49.870Z,10.20
2023-02-01T23:06:18.009Z,10.70
2023-02-01T23:08:45.404Z,11.10
2023-02-01T23:11:12.140Z,10.00
2023-02-01T23:13:39.493Z,10.20
2023-02-01T23:16:07.970Z,11.10
2023-02-01T23:18:35.026Z,11.00
2023-02-01T23:21:03.583Z,9.20
2023-02-01T23:23:30.106Z,10.50
2023-02-01T23:25:58.098Z,9.70
2023-02-01T23:28:26.427Z,11.00
2023-02-01T23:30:53.177Z,10.70
2023-02-01T23:33:26.418Z,10.60
2023-02-01T23:35:57.971Z,11.20
2023-02-01T23:38:26.760Z,10.20
2023-02-01T23:40:58.218Z,11.00
2023-02-01T23:43:43.737Z,11.00
2023-02-01T23:46:10.667Z,10.50
2023-02-01T23:48:37.753Z,9.00
2023-02-01T23:51:04.936Z,9.80
2023-02-01T23:53:32.908Z,10.10
2023-02-01T23:56:00.472Z,10.60
2023-02-01T23:58:27.139Z,10.30
